createdAt,value
2023-01-18T00:02:36.259Z,44.10
2023-01-18T00:06:34.307Z,44.20
2023-01-18T00:10:32.404Z,49.50
2023-01-18T00:14:31.252Z,41.00
2023-01-18T00:18:29.271Z,35.00
2023-01-18T00:22:27.358Z,37.20
2023-01-18T00:26:26.185Z,36.70
2023-01-18T00:30:25.227Z,35.60
2023-01-18T00:34:23.156Z,33.10
2023-01-18T00:38:21.204Z,32.60
2023-01-18T00:42:36.182Z,33.20
2023-01-18T00:46:43.189Z,33.20
2023-01-18T00:50:41.125Z,30.50
2023-01-18T00:54:39.435Z,30.00
2023-01-18T00:58:38.235Z,30.40
2023-01-18T01:02:37.298Z,30.20
2023-01-18T01:06:52.119Z,30.10
2023-01-18T01:10:50.198Z,30.20
2023-01-18T01:15:08.661Z,33.20
2023-01-18T01:19:23.120Z,29.40
2023-01-18T01:23:55.095Z,30.90
2023-01-18T01:27:53.173Z,30.10
2023-01-18T01:31:51.155Z,30.50
2023-01-18T01:35:49.135Z,30.70
2023-01-18T01:39:47.060Z,31.10
2023-01-18T01:44:05.101Z,30.50
2023-01-18T01:48:03.143Z,31.40
2023-01-18T01:52:07.115Z,31.60
2023-01-18T01:56:05.097Z,29.50
2023-01-18T02:00:13.156Z,32.10
2023-01-18T02:04:15.039Z,30.90
2023-01-18T02:08:18.104Z,29.70
2023-01-18T02:12:16.100Z,26.60
2023-01-18T02:16:32.123Z,25.50
2023-01-18T02:20:58.064Z,26.80
2023-01-18T02:24:58.987Z,24.30
2023-01-18T02:29:07.025Z,19.60
2023-01-18T02:33:16.137Z,22.60
2023-01-18T02:37:45.966Z,24.30
2023-01-18T02:42:19.026Z,21.80
2023-01-18T02:46:40.008Z,20.70
2023-01-18T02:50:42.073Z,19.60
2023-01-18T02:54:39.967Z,20.80
2023-01-18T02:58:54.093Z,20.30
2023-01-18T03:02:55.403Z,22.70
2023-01-18T03:06:57.982Z,21.60
2023-01-18T03:11:13.977Z,19.40
2023-01-18T03:15:26.041Z,18.50
2023-01-18T03:19:54.025Z,16.40
2023-01-18T03:23:56.952Z,16.10
2023-01-18T03:28:14.970Z,16.00
2023-01-18T03:32:44.963Z,16.10
2023-01-18T03:36:52.492Z,15.00
2023-01-18T03:40:52.014Z,14.90
2023-01-18T03:44:59.119Z,14.50
2023-01-18T03:48:56.983Z,14.20
2023-01-18T03:53:04.895Z,12.80
2023-01-18T03:57:10.944Z,12.40
2023-01-18T04:01:10.996Z,11.90
2023-01-18T04:05:09.889Z,10.30
2023-01-18T04:09:07.860Z,12.50
2023-01-18T04:13:06.975Z,11.40
2023-01-18T04:17:04.953Z,12.30
2023-01-18T04:21:02.933Z,11.90
2023-01-18T04:25:01.920Z,12.80
2023-01-18T04:28:59.916Z,11.00
2023-01-18T04:32:58.463Z,12.80
2023-01-18T04:36:56.901Z,12.00
2023-01-18T04:40:54.875Z,12.30
2023-01-18T04:44:52.831Z,11.30
2023-01-18T04:48:50.937Z,13.00
2023-01-18T04:52:48.911Z,12.10
2023-01-18T04:56:47.913Z,11.40
2023-01-18T05:00:46.939Z,12.60
2023-01-18T05:04:45.923Z,10.90
2023-01-18T05:08:47.895Z,12.80
2023-01-18T05:12:38.911Z,11.90
2023-01-18T05:16:37.914Z,12.30
2023-01-18T05:20:35.794Z,12.40
2023-01-18T05:24:33.886Z,12.40
2023-01-18T05:28:31.813Z,11.70
2023-01-18T05:32:29.780Z,14.40
2023-01-18T05:36:29.858Z,13.10
2023-01-18T05:40:27.752Z,13.40
2023-01-18T05:44:25.743Z,13.50
2023-01-18T05:48:24.767Z,13.80
2023-01-18T05:52:23.818Z,13.70
2023-01-18T05:56:22.756Z,14.00
2023-01-18T06:00:21.717Z,14.90
2023-01-18T06:04:19.857Z,14.10
2023-01-18T06:08:17.778Z,15.90
2023-01-18T06:12:15.757Z,16.40
2023-01-18T06:16:14.802Z,14.90
2023-01-18T06:20:12.777Z,16.40
2023-01-18T06:24:10.651Z,16.60
2023-01-18T06:28:09.830Z,16.40
2023-01-18T06:32:07.666Z,18.60
2023-01-18T06:36:05.788Z,16.90
2023-01-18T06:40:03.765Z,17.10
2023-01-18T06:44:01.676Z,18.50
2023-01-18T06:47:52.855Z,18.20
2023-01-18T06:51:50.739Z,19.60
2023-01-18T06:55:48.710Z,20.50
2023-01-18T06:59:39.786Z,21.40
2023-01-18T07:03:04.464Z,24.00
2023-01-18T07:06:28.512Z,25.20
2023-01-18T07:09:52.525Z,23.30
2023-01-18T07:13:17.086Z,25.20
2023-01-18T07:16:40.919Z,29.10
2023-01-18T07:20:05.350Z,27.10
2023-01-18T07:23:30.079Z,27.20
2023-01-18T07:26:53.911Z,28.00
2023-01-18T07:30:18.369Z,24.20
2023-01-18T07:33:42.217Z,25.80
2023-01-18T07:37:06.544Z,26.00
2023-01-18T07:40:30.359Z,26.00
2023-01-18T07:43:54.260Z,26.00
2023-01-18T07:47:18.352Z,26.60
2023-01-18T07:50:42.319Z,24.40
2023-01-18T07:54:06.588Z,23.40
2023-01-18T07:57:30.589Z,23.40
2023-01-18T08:00:54.789Z,23.60
2023-01-18T08:04:18.833Z,23.10
2023-01-18T08:07:43.316Z,22.40
2023-01-18T08:11:08.975Z,21.30
2023-01-18T08:14:33.411Z,22.10
2023-01-18T08:17:58.535Z,22.50
2023-01-18T08:21:22.380Z,21.90
2023-01-18T08:24:46.287Z,21.00
2023-01-18T08:28:10.903Z,21.90
2023-01-18T08:31:34.792Z,22.00
2023-01-18T08:34:58.702Z,20.40
2023-01-18T08:38:23.700Z,19.20
2023-01-18T08:41:49.122Z,21.00
2023-01-18T08:45:13.116Z,21.20
2023-01-18T08:48:37.282Z,19.70
2023-01-18T08:52:01.267Z,21.60
2023-01-18T08:55:25.206Z,21.10
2023-01-18T08:58:49.158Z,23.30
2023-01-18T09:02:13.285Z,19.50
2023-01-18T09:05:37.710Z,20.90
2023-01-18T09:09:02.384Z,21.90
2023-01-18T09:12:26.693Z,20.20
2023-01-18T09:16:00.127Z,21.10
2023-01-18T09:19:24.082Z,20.80
2023-01-18T09:22:48.900Z,20.30
2023-01-18T09:26:17.110Z,21.70
2023-01-18T09:29:41.807Z,23.00
2023-01-18T09:33:05.741Z,22.10
2023-01-18T09:36:30.888Z,21.30
2023-01-18T09:39:54.946Z,22.40
2023-01-18T09:43:30.295Z,22.80
2023-01-18T09:47:13.032Z,23.20
2023-01-18T09:50:43.966Z,22.60
2023-01-18T09:54:24.107Z,22.20
2023-01-18T09:58:33.347Z,22.40
2023-01-18T10:01:57.684Z,20.10
2023-01-18T10:05:25.544Z,19.70
2023-01-18T10:09:15.668Z,21.60
2023-01-18T10:12:48.052Z,20.60
2023-01-18T10:16:15.454Z,20.20
2023-01-18T10:19:42.269Z,20.60
2023-01-18T10:23:19.017Z,22.20
2023-01-18T10:26:42.835Z,19.30
2023-01-18T10:30:32.949Z,20.40
2023-01-18T10:34:00.167Z,18.80
2023-01-18T10:37:23.884Z,17.50
2023-01-18T10:40:57.740Z,17.10
2023-01-18T10:44:21.746Z,16.80
2023-01-18T10:47:45.936Z,17.20
2023-01-18T10:51:09.835Z,17.10
2023-01-18T10:54:33.736Z,15.80
2023-01-18T10:57:58.047Z,16.90
2023-01-18T11:01:26.032Z,16.60
2023-01-18T11:04:57.279Z,17.30
2023-01-18T11:08:24.124Z,17.90
2023-01-18T11:12:05.403Z,18.10
2023-01-18T11:15:31.721Z,17.90
2023-01-18T11:19:03.331Z,17.20
2023-01-18T11:22:32.921Z,18.90
2023-01-18T11:26:00.800Z,19.80
2023-01-18T11:29:28.745Z,19.20
2023-01-18T11:32:53.465Z,19.20
2023-01-18T11:36:19.342Z,19.40
2023-01-18T11:39:45.470Z,20.50
2023-01-18T11:43:22.581Z,28.40
2023-01-18T11:46:52.091Z,29.80
2023-01-18T11:50:25.043Z,29.50
2023-01-18T11:54:13.341Z,30.60
2023-01-18T11:57:37.258Z,31.00
2023-01-18T12:01:10.841Z,30.00
2023-01-18T12:08:25.317Z,29.50
2023-01-18T12:12:18.433Z,33.70
2023-01-18T12:16:01.216Z,29.10
2023-01-18T12:20:22.997Z,27.00
2023-01-18T12:23:58.961Z,26.30
2023-01-18T12:31:43.378Z,20.40
2023-01-18T12:35:26.319Z,21.10
2023-01-18T12:38:56.459Z,23.10
2023-01-18T12:43:00.516Z,19.90
2023-01-18T12:46:47.815Z,20.40
2023-01-18T12:50:30.097Z,18.90
2023-01-18T12:54:13.552Z,18.20
2023-01-18T12:57:37.883Z,18.00
2023-01-18T13:01:05.973Z,14.10
2023-01-18T13:04:44.737Z,13.00
2023-01-18T13:08:16.250Z,8.80
2023-01-18T13:11:44.326Z,7.90
2023-01-18T13:15:43.929Z,8.30
2023-01-18T13:19:12.557Z,8.30
2023-01-18T13:22:48.945Z,9.00
2023-01-18T13:26:18.543Z,9.80
2023-01-18T13:29:46.357Z,6.50
2023-01-18T13:33:14.909Z,6.50
2023-01-18T13:36:47.351Z,11.90
2023-01-18T13:40:28.560Z,20.10
2023-01-18T13:43:56.379Z,14.50
2023-01-18T13:47:39.686Z,12.30
2023-01-18T13:51:03.557Z,8.70
2023-01-18T13:54:28.614Z,8.80
2023-01-18T13:57:56.802Z,8.20
2023-01-18T14:01:25.214Z,7.30
2023-01-18T14:05:00.716Z,6.40
2023-01-18T14:08:32.610Z,6.30
2023-01-18T14:12:01.939Z,6.40
2023-01-18T14:15:44.740Z,6.40
2023-01-18T14:19:23.606Z,5.90
2023-01-18T14:23:21.703Z,6.10
2023-01-18T14:26:48.040Z,7.20
2023-01-18T14:30:38.242Z,8.70
2023-01-18T14:34:45.151Z,8.70
2023-01-18T14:42:25.209Z,10.80
2023-01-18T14:46:16.125Z,12.00
2023-01-18T14:49:42.414Z,10.50
2023-01-18T14:53:08.955Z,7.10
2023-01-18T14:56:34.965Z,6.40
2023-01-18T15:00:30.543Z,5.90
2023-01-18T15:04:00.278Z,5.80
2023-01-18T15:07:33.997Z,6.50
2023-01-18T15:10:59.533Z,7.00
2023-01-18T15:14:33.545Z,7.30
2023-01-18T15:18:10.652Z,7.50
2023-01-18T15:21:37.684Z,8.20
2023-01-18T15:25:02.180Z,8.20
2023-01-18T15:28:34.029Z,7.40
2023-01-18T15:32:21.708Z,7.30
2023-01-18T15:35:49.375Z,9.20
2023-01-18T15:39:14.469Z,8.60
2023-01-18T15:42:49.603Z,10.10
2023-01-18T15:46:19.221Z,8.90
2023-01-18T15:49:48.909Z,11.60
2023-01-18T15:53:26.032Z,11.30
2023-01-18T15:56:50.138Z,10.60
2023-01-18T16:00:46.876Z,11.70
2023-01-18T16:07:39.394Z,11.10
2023-01-18T16:11:06.037Z,11.90
2023-01-18T16:14:31.064Z,12.50
2023-01-18T16:18:04.384Z,13.50
2023-01-18T16:25:10.939Z,16.70
2023-01-18T16:28:36.976Z,15.50
2023-01-18T16:32:29.116Z,14.90
2023-01-18T16:35:53.164Z,15.90
2023-01-18T16:39:17.038Z,15.20
2023-01-18T16:42:55.681Z,19.50
2023-01-18T16:46:20.428Z,22.90
2023-01-18T16:49:44.583Z,20.90
2023-01-18T16:53:09.612Z,20.20
2023-01-18T16:56:35.430Z,16.30
2023-01-18T16:59:59.335Z,15.80
2023-01-18T17:03:23.385Z,15.40
2023-01-18T17:06:50.715Z,15.50
2023-01-18T17:10:20.062Z,16.70
2023-01-18T17:13:47.764Z,16.00
2023-01-18T17:17:12.027Z,15.40
2023-01-18T17:20:36.311Z,16.00
2023-01-18T17:24:01.925Z,14.50
2023-01-18T17:27:25.826Z,15.60
2023-01-18T17:30:56.036Z,17.70
2023-01-18T17:34:28.013Z,16.00
2023-01-18T17:38:00.980Z,16.70
2023-01-18T17:41:40.882Z,19.10
2023-01-18T17:45:06.638Z,17.20
2023-01-18T17:51:54.634Z,20.80
2023-01-18T17:55:24.500Z,23.40
2023-01-18T17:58:54.995Z,23.20
2023-01-18T18:02:19.049Z,17.70
2023-01-18T18:05:43.770Z,20.10
2023-01-18T18:09:08.710Z,23.20
2023-01-18T18:12:35.869Z,16.90
2023-01-18T18:15:59.844Z,14.60
2023-01-18T18:19:26.522Z,15.30
2023-01-18T18:22:50.451Z,19.90
2023-01-18T18:26:18.726Z,16.60
2023-01-18T18:45:32.578Z,18.40
2023-01-18T18:48:56.729Z,16.90
2023-01-18T18:52:20.579Z,16.50
2023-01-18T18:55:44.670Z,18.60
2023-01-18T18:59:08.770Z,24.10
2023-01-18T19:02:32.802Z,23.00
2023-01-18T19:05:56.749Z,20.40
2023-01-18T19:09:20.991Z,20.10
2023-01-18T19:12:45.139Z,21.20
2023-01-18T19:16:09.467Z,20.00
2023-01-18T19:19:33.800Z,19.10
2023-01-18T19:22:58.373Z,19.00
2023-01-18T19:26:22.941Z,21.30
2023-01-18T19:29:47.105Z,22.00
2023-01-18T19:33:12.826Z,22.90
2023-01-18T19:36:36.748Z,20.80
2023-01-18T19:40:01.098Z,21.70
2023-01-18T19:43:25.692Z,26.60
2023-01-18T19:46:49.711Z,24.80
2023-01-18T19:50:13.649Z,27.80
2023-01-18T19:53:37.527Z,30.80
2023-01-18T19:57:02.747Z,25.40
2023-01-18T20:00:29.027Z,25.40
2023-01-18T20:03:53.260Z,28.20
2023-01-18T20:07:17.448Z,23.60
2023-01-18T20:10:42.358Z,23.00
2023-01-18T20:14:07.831Z,23.00
2023-01-18T20:17:31.689Z,24.40
2023-01-18T20:20:57.018Z,24.20
2023-01-18T20:24:21.065Z,21.40
2023-01-18T20:27:45.501Z,23.30
2023-01-18T20:31:10.347Z,24.00
2023-01-18T20:34:36.279Z,23.20
2023-01-18T20:38:00.146Z,23.90
2023-01-18T20:41:24.339Z,26.90
2023-01-18T20:44:53.854Z,26.60
2023-01-18T20:48:18.496Z,29.50
2023-01-18T20:51:44.116Z,27.00
2023-01-18T20:55:13.830Z,28.40
2023-01-18T20:58:38.870Z,26.20
2023-01-18T21:02:04.124Z,27.10
2023-01-18T21:05:31.066Z,29.10
2023-01-18T21:08:59.347Z,28.20
2023-01-18T21:12:23.522Z,24.00
2023-01-18T21:15:54.609Z,25.30
2023-01-18T21:19:18.488Z,23.60
2023-01-18T21:22:42.732Z,25.80
2023-01-18T21:26:11.637Z,23.90
2023-01-18T21:29:35.690Z,23.00
2023-01-18T21:32:59.452Z,23.40
2023-01-18T21:36:23.741Z,22.80
2023-01-18T21:39:47.623Z,24.40
2023-01-18T21:43:38.690Z,22.90
2023-01-18T21:47:02.499Z,23.10
2023-01-18T21:50:44.648Z,23.70
2023-01-18T21:54:17.447Z,23.80
2023-01-18T21:57:41.315Z,22.30
2023-01-18T22:01:17.596Z,23.40
2023-01-18T22:05:00.279Z,23.80
2023-01-18T22:08:24.201Z,22.40
2023-01-18T22:11:48.685Z,23.80
2023-01-18T22:15:12.774Z,23.00
2023-01-18T22:18:37.330Z,22.10
2023-01-18T22:22:02.094Z,22.90
2023-01-18T22:25:26.017Z,22.50
2023-01-18T22:28:50.325Z,24.20
2023-01-18T22:32:14.222Z,25.10
2023-01-18T22:35:38.100Z,24.80
2023-01-18T22:39:02.103Z,23.50
2023-01-18T22:42:26.471Z,24.20
2023-01-18T22:45:57.178Z,23.60
2023-01-18T22:49:21.125Z,23.60
2023-01-18T22:52:45.175Z,25.00
2023-01-18T22:56:12.270Z,24.30
2023-01-18T22:59:36.218Z,24.10
2023-01-18T23:03:00.202Z,22.60
2023-01-18T23:06:24.375Z,22.70
2023-01-18T23:09:50.624Z,21.20
2023-01-18T23:13:15.203Z,22.40
2023-01-18T23:16:57.012Z,22.40
2023-01-18T23:20:24.332Z,22.10
2023-01-18T23:23:49.083Z,22.30
2023-01-18T23:27:13.305Z,21.80
2023-01-18T23:30:37.179Z,24.60
2023-01-18T23:34:01.153Z,22.50
2023-01-18T23:37:25.936Z,23.30
2023-01-18T23:41:07.746Z,20.90
2023-01-18T23:44:49.040Z,22.20
2023-01-18T23:48:37.197Z,24.30
2023-01-18T23:52:19.009Z,22.10
2023-01-18T23:55:43.167Z,24.80
2023-01-18T23:59:08.872Z,23.50
